GABS

Senou Airport

Senou, Mali
METAR GABS 210030Z 26002KT 9999 FEW020 27/25 Q1013 NOSIG
Observed Flight Rules
Sep-21 @ 00:30 UTC (28 minutes ago) Visual Flight Rules
Wind Visibility Clouds
260° at 2 knots 10,000+ meters
Temperatures Readings
Current 27°C / 81°F
Dewpoint 25°C / 77°F
Humidity 89%
Altimeter 29.91" Hg
Pressure 1013 hPa
Elevation 381
METAR GABS 210030Z 26002KT 9999 FEW020 27/25 Q1013 NOSIG
Observed Flight Rules
Sep-21 @ 00:30 UTC
(28 minutes ago)
VFR
Wind Visibility
260° at 2 knots 10,000+ meters
Clouds
Temperature Dewpoint
27°C / 81°F 25°C / 77°F
Humidity Altimeter Pressure
89% 29.91" Hg 1013 hPa